Freeport, New York
Current Conditions -  °F | °C
As of 12:51 PM on Wednesday 26 Nov 2014 (Local Time) from KJFK Reporting Station
Light Snow Light Snow  
Wind Chill: 28°   Ceiling: 800
Heat Index: 36°   Visibility: 3mi
Dew Point: 33°   Wind: 13mph
Humidity: 89%   Direction: 10°N
Pressure: 30"   Gusts: NA
Location:  40.66°N, 73.59°W
Report Text: KJFK 261751Z 01011KT 3SM -RASNPL BR BKN008 BKN032 OVC050 02/01 A3000 RMK AO2 SFC VIS 5 PLB01SNB41 SLP158 BKN008 V SCT 931001 P0012 60053 T00220006 10083 20022 56042 $
Loading
Personal Weather Stations






























Interactive Weather Map New forecast layout! Learn more

10-Day Weather Forecast

Advertisements
Track Severe Weather on mobile